Terminal Aerodrome Forecast
Issued by NWS

Home | Current Version | Previous Version | Text Only | Print | Product List | Glossary On
Versions: 1 2 3 4 5 6 7 8 9 10 11 12
000
FTUS46 KPDT 091740
TAFALW
TAF
KALW 091740Z 0918/1018 VRB03KT P6SM SKC
     FM091900 25004KT P6SM SKC
     FM100200 18004KT P6SM SKC
     FM100900 15004KT P6SM SCT250
     FM101500 13003KT P6SM BKN180=

USA.gov is the U.S. government's official web portal to all federal, state and local government web resources and services.